Flag for France

Past Weather in Rennes, Bretagne, France — Yesterday and Last 2 Weeks

Currently: 36 °F. Light rain. Passing clouds. (Weather station: Rennes Airport, France). See more current weather

Past Weather in Rennes — Graph

°F

Rennes Temperature Yesterday

Maximum temperature yesterday: 48 °F (at 2:30 pm)
Minimum temperature yesterday: 30 °F (at 1:30 am)
Average temperature yesterday: 38 °F

High & Low Weather Summary for the Past Weeks

 TemperatureHumidityPressure
High54 °F (Jan 12, 5:00 pm)100% (Jan 10, 8:30 pm)30.45 "Hg (Jan 10, 8:30 pm)
Low27 °F (Jan 11, 1:30 am)61% (Jan 15, 4:30 pm)29.12 "Hg (Jan 20, 7:30 pm)
Average44 °F87%29.96 "Hg
* Reported Jan 10 2:00 am — Jan 25 2:00 am, Rennes. Weather by CustomWeather, © 2021

Note: Actual official high and low records may vary slightly from our data, if they occured in-between our weather recording intervals... More about our weather records

Rennes Weather History for the Previous 24 Hours

Scroll right to see more
 ConditionsComfort  
Time TempWeatherWind HumidityBarometerVisibility
2:00 am
Mon, Jan 25
36 °FClear.10 mph87%29.65 "Hg10 mi
1:30 am36 °FClear.9 mph87%29.65 "Hg10 mi
12:30 am36 °FClear.8 mph87%29.62 "Hg10 mi
12:00 am37 °FClear.12 mph81%29.62 "Hg10 mi
11:30 pm
Sun, Jan 24
36 °FPassing clouds.8 mph87%29.59 "HgN/A
11:00 pm37 °FPassing clouds.14 mph81%29.59 "HgN/A
10:30 pm37 °FClear.12 mph81%29.59 "Hg10 mi
10:00 pm37 °FClear.13 mph87%29.59 "Hg10 mi
9:30 pm37 °FClear.13 mph81%29.59 "Hg10 mi
9:00 pm39 °FPassing clouds.14 mph81%29.56 "HgN/A
8:30 pm39 °FClear.14 mph75%29.56 "Hg10 mi
8:00 pm39 °FClear.14 mph75%29.56 "Hg10 mi
7:30 pm39 °FClear.13 mph81%29.53 "Hg10 mi
7:00 pm39 °FClear.13 mph81%29.53 "Hg10 mi
6:30 pm41 °FClear.15 mph76%29.53 "Hg10 mi
6:00 pm43 °FPassing clouds.17 mph66%29.53 "HgN/A
5:30 pm43 °FPassing clouds.12 mph76%29.53 "HgN/A
5:00 pm45 °FSunny.14 mph66%29.53 "Hg10 mi
4:30 pm45 °FSunny.14 mph71%29.53 "Hg10 mi
4:00 pm45 °FScattered clouds.9 mph81%29.53 "HgN/A
3:30 pm45 °FLight rain. Broken clouds.17 mph66%29.53 "HgN/A
3:00 pm48 °FBroken clouds.16 mph62%29.53 "HgN/A
2:30 pm48 °FPartly sunny.15 mph62%29.53 "HgN/A
2:00 pm46 °FSunny.17 mph66%29.53 "Hg10 mi
1:30 pm45 °FMostly cloudy.12 mph76%29.53 "HgN/A
1:00 pm46 °FSunny.14 mph71%29.53 "Hg10 mi
12:30 pm43 °FSunny.9 mph81%29.56 "Hg10 mi
12:00 pm43 °FBroken clouds.7 mph87%29.56 "HgN/A
11:30 am43 °FBroken clouds.8 mph87%29.56 "HgN/A
11:00 am41 °FSunny.9 mph87%29.56 "Hg10 mi
10:30 am41 °FSunny.8 mph87%29.56 "Hg10 mi
10:00 am37 °FSunny.7 mph93%29.56 "Hg10 mi
9:30 am37 °FPartly sunny.7 mph93%29.56 "HgN/A
9:00 am37 °FDrizzle. Mostly cloudy.9 mph93%29.56 "HgN/A
8:30 am37 °FDrizzle. Mostly cloudy.12 mph87%29.56 "HgN/A
8:00 am37 °FPassing clouds.12 mph87%29.56 "HgN/A
7:30 am37 °FPassing clouds.12 mph87%29.56 "HgN/A
7:00 am36 °FPassing clouds.13 mph93%29.56 "HgN/A
6:30 am36 °FPassing clouds.12 mph93%29.56 "HgN/A
6:00 am32 °FPassing clouds.8 mph100%29.56 "HgN/A
5:30 am30 °FPassing clouds.5 mph100%29.59 "HgN/A
5:00 am30 °FOvercast.2 mph100%29.59 "Hg4 mi
4:30 am30 °FClear.2 mph100%29.59 "Hg4 mi
4:00 am30 °FPartly cloudy.3 mph100%29.59 "Hg4 mi
3:30 am30 °FClear.2 mph100%29.59 "Hg4 mi
3:00 am30 °FClear.5 mph100%29.59 "Hg4 mi
Weather by CustomWeather, © 2021

See weather overview